Time;durP1;ratioP1;P1;durP2;ratioP2;P2;SDS_P1;SDS_P2;PMS_P1;PMS_P2;Temp;Humidity;BMP_temperature;BMP_pressure;BME280_temperature;BME280_humidity;BME280_pressure;Samples;Min_cycle;Max_cycle;Signal;HPM_P1;HPM_P2
2022/05/04 00:00:21;;;;;;;10.90;4.87;;;8.80;99.90;;;;;;5090778;28;20103;-48
2022/05/04 00:02:46;;;;;;;9.75;4.40;;;8.80;99.90;;;;;;5090100;28;20684;-50
2022/05/04 00:05:12;;;;;;;8.75;4.90;;;8.70;99.90;;;;;;5089473;28;20111;-46
2022/05/04 00:07:37;;;;;;;9.98;5.05;;;8.60;99.90;;;;;;5090575;28;20070;-48
2022/05/04 00:10:05;;;;;;;7.45;4.68;;;8.70;99.90;;;;;;5084285;28;20064;-50
2022/05/04 00:12:32;;;;;;;11.48;4.75;;;8.70;99.90;;;;;;5080663;28;20020;-48
2022/05/04 00:14:57;;;;;;;8.63;4.85;;;8.70;99.90;;;;;;5090495;28;20431;-50
2022/05/04 00:17:23;;;;;;;10.82;4.65;;;8.70;99.90;;;;;;5090528;28;20028;-47
2022/05/04 00:19:49;;;;;;;9.68;4.57;;;8.70;99.90;;;;;;5090517;28;20024;-46
2022/05/04 00:22:18;;;;;;;7.32;4.55;;;8.70;99.90;;;;;;5089825;28;20478;-45
2022/05/04 00:24:44;;;;;;;12.00;5.32;;;8.70;99.90;;;;;;5088983;28;20028;-45
2022/05/04 00:27:10;;;;;;;9.18;4.95;;;8.70;99.90;;;;;;5090290;28;20020;-45
2022/05/04 00:29:35;;;;;;;12.57;5.53;;;8.80;99.90;;;;;;5090708;28;20435;-46
2022/05/04 00:32:01;;;;;;;12.20;5.10;;;8.80;99.90;;;;;;5089858;28;20028;-45
2022/05/04 00:34:26;;;;;;;10.32;4.78;;;8.80;99.90;;;;;;5082764;28;20104;-45
2022/05/04 00:36:52;;;;;;;11.63;5.40;;;8.90;99.90;;;;;;5081522;28;20378;-45
2022/05/04 00:39:17;;;;;;;16.42;6.15;;;8.80;99.90;;;;;;5090017;28;20477;-46
2022/05/04 00:41:43;;;;;;;8.80;4.90;;;8.80;99.90;;;;;;5087905;28;20111;-45
2022/05/04 00:44:08;;;;;;;12.88;5.80;;;8.80;99.90;;;;;;5090237;28;20023;-46
2022/05/04 00:46:34;;;;;;;11.10;5.35;;;8.80;99.90;;;;;;5088594;28;20025;-46
2022/05/04 00:48:59;;;;;;;8.70;4.47;;;8.80;99.90;;;;;;5089878;28;20439;-45
2022/05/04 00:51:25;;;;;;;10.88;5.32;;;8.70;99.90;;;;;;5089786;28;20144;-45
2022/05/04 00:53:51;;;;;;;13.32;5.57;;;8.70;99.90;;;;;;5089109;28;20115;-47
2022/05/04 00:56:17;;;;;;;11.00;4.68;;;8.70;99.90;;;;;;5089389;28;20393;-45
2022/05/04 00:58:55;;;;;;;13.23;5.05;;;8.60;99.90;;;;;;5089309;28;20081;-45
2022/05/04 01:01:27;;;;;;;13.27;4.63;;;8.60;99.90;;;;;;5089586;28;20019;-45
2022/05/04 01:03:57;;;;;;;10.98;5.00;;;8.50;99.90;;;;;;5086873;28;20054;-46
2022/05/04 01:06:23;;;;;;;11.57;5.17;;;8.50;99.90;;;;;;5076536;28;20016;-45
2022/05/04 01:08:50;;;;;;;15.98;4.82;;;8.50;99.90;;;;;;5089616;28;20055;-45
2022/05/04 01:11:16;;;;;;;18.40;5.22;;;8.50;99.90;;;;;;5089771;28;20401;-45
2022/05/04 01:13:43;;;;;;;11.35;4.93;;;8.40;99.90;;;;;;5089648;28;20449;-45
2022/05/04 01:16:08;;;;;;;16.58;5.03;;;8.40;99.90;;;;;;5089791;28;20120;-46
2022/05/04 01:18:34;;;;;;;17.50;5.15;;;8.40;99.90;;;;;;5089579;28;20107;-47
2022/05/04 01:21:01;;;;;;;11.90;4.88;;;8.40;99.90;;;;;;5089491;28;20024;-46
2022/05/04 01:23:27;;;;;;;13.90;4.32;;;8.30;99.90;;;;;;5088709;28;20020;-45
2022/05/04 01:25:55;;;;;;;12.82;4.43;;;8.30;99.90;;;;;;5089066;28;20120;-48
2022/05/04 01:28:20;;;;;;;9.27;4.47;;;8.20;99.90;;;;;;5089212;28;20028;-45
2022/05/04 01:30:46;;;;;;;10.20;4.20;;;8.20;99.90;;;;;;5089179;28;20024;-45
2022/05/04 01:33:11;;;;;;;12.05;5.30;;;8.10;99.90;;;;;;5088433;28;20028;-46
2022/05/04 01:35:37;;;;;;;11.65;4.57;;;8.10;99.90;;;;;;5078648;28;20036;-45
2022/05/04 01:38:03;;;;;;;15.07;5.45;;;8.10;99.90;;;;;;5084496;28;20475;-45
2022/05/04 01:40:28;;;;;;;11.05;5.13;;;8.00;99.90;;;;;;5088701;28;20024;-46
2022/05/04 01:42:54;;;;;;;16.48;6.00;;;7.90;99.90;;;;;;5088529;28;20069;-47
2022/05/04 01:45:19;;;;;;;10.40;5.35;;;7.90;99.90;;;;;;5088865;28;20016;-46
2022/05/04 01:47:49;;;;;;;14.68;4.35;;;7.80;99.90;;;;;;5089191;28;20024;-47
2022/05/04 01:50:14;;;;;;;9.90;4.88;;;7.80;99.90;;;;;;5088901;28;20024;-46
2022/05/04 01:52:40;;;;;;;8.75;4.75;;;7.80;99.90;;;;;;5088429;28;20035;-46
2022/05/04 01:55:06;;;;;;;13.98;5.03;;;7.70;99.90;;;;;;5088837;28;20595;-46
2022/05/04 01:57:32;;;;;;;25.73;5.68;;;7.70;99.90;;;;;;5088323;28;20070;-46
2022/05/04 01:59:57;;;;;;;15.63;5.68;;;7.70;99.90;;;;;;5073917;28;20052;-45
2022/05/04 02:02:25;;;;;;;14.98;5.88;;;7.60;99.90;;;;;;5086649;28;20493;-47
2022/05/04 02:04:51;;;;;;;14.57;4.63;;;7.60;99.90;;;;;;5088747;28;20379;-48
2022/05/04 02:07:16;;;;;;;21.50;6.90;;;7.60;99.90;;;;;;5087512;28;20031;-46
2022/05/04 02:09:42;;;;;;;13.27;5.10;;;7.50;99.90;;;;;;5088634;28;20115;-46
2022/05/04 02:12:08;;;;;;;15.02;4.80;;;7.50;99.90;;;;;;5087910;28;20028;-46
2022/05/04 02:14:33;;;;;;;16.58;5.60;;;7.50;99.90;;;;;;5073074;28;20056;-46
2022/05/04 02:17:00;;;;;;;16.63;5.60;;;7.40;99.90;;;;;;5061482;28;20086;-45
2022/05/04 02:19:25;;;;;;;10.80;5.50;;;7.40;99.90;;;;;;5063296;28;20390;-45
2022/05/04 02:21:51;;;;;;;13.35;5.10;;;7.40;99.90;;;;;;5059972;28;20039;-45
2022/05/04 02:24:17;;;;;;;20.75;6.38;;;7.40;99.90;;;;;;5052535;28;20543;-48
2022/05/04 02:26:42;;;;;;;13.18;5.20;;;7.40;99.90;;;;;;5052342;28;20056;-47
2022/05/04 02:29:08;;;;;;;22.60;6.30;;;7.40;99.90;;;;;;5051308;28;20029;-46
2022/05/04 02:31:33;;;;;;;15.65;5.57;;;7.30;99.90;;;;;;5079032;28;20462;-46
2022/05/04 02:33:59;;;;;;;12.93;6.43;;;7.30;99.90;;;;;;5070595;28;20038;-47
2022/05/04 02:39:08;;;;;;;10.52;5.10;;;7.30;99.90;;;;;;5067556;28;20080;-46
2022/05/04 02:41:34;;;;;;;16.83;6.28;;;7.20;99.90;;;;;;5071199;28;20060;-46
2022/05/04 02:44:02;;;;;;;16.67;5.85;;;7.20;99.90;;;;;;5071769;28;20051;-46
2022/05/04 02:46:30;;;;;;;13.48;5.60;;;7.30;99.90;;;;;;5071819;28;20028;-46
2022/05/04 02:48:55;;;;;;;23.58;7.07;;;7.20;99.90;;;;;;5071948;28;20078;-46
2022/05/04 02:51:21;;;;;;;13.10;6.15;;;7.20;99.90;;;;;;5071925;28;20033;-45
2022/05/04 02:53:46;;;;;;;18.45;6.10;;;7.10;99.90;;;;;;5071322;28;20118;-46
2022/05/04 02:56:15;;;;;;;20.98;6.78;;;7.10;99.90;;;;;;5071696;28;20024;-45
2022/05/04 02:58:44;;;;;;;14.32;5.25;;;7.10;99.90;;;;;;5072617;28;20024;-45
2022/05/04 03:04:02;;;;;;;19.38;5.80;;;7.10;99.90;;;;;;5086732;28;20026;-46
2022/05/04 03:06:28;;;;;;;14.48;5.78;;;7.10;99.90;;;;;;5091952;28;20020;-45
2022/05/04 03:08:53;;;;;;;15.45;6.28;;;7.10;99.90;;;;;;5091586;28;20073;-46
2022/05/04 03:14:03;;;;;;;16.02;5.35;;;7.00;99.90;;;;;;5090640;28;20077;-45
2022/05/04 03:16:28;;;;;;;16.17;5.90;;;7.00;99.90;;;;;;5090499;28;20020;-45
2022/05/04 03:18:54;;;;;;;10.38;4.90;;;6.90;99.90;;;;;;5090333;28;20032;-46
2022/05/04 03:21:19;;;;;;;17.17;6.65;;;6.90;99.90;;;;;;5090543;28;20178;-46
2022/05/04 03:23:44;;;;;;;16.88;5.82;;;6.90;99.90;;;;;;5089966;28;20119;-48
2022/05/04 03:26:10;;;;;;;25.08;6.40;;;6.90;99.90;;;;;;5089809;28;20031;-46
2022/05/04 03:28:36;;;;;;;19.95;6.65;;;6.90;99.90;;;;;;5090423;28;20544;-46
2022/05/04 03:31:01;;;;;;;17.17;5.78;;;6.80;99.90;;;;;;5087817;28;20020;-46
2022/05/04 03:33:27;;;;;;;15.73;7.03;;;6.80;99.90;;;;;;5081077;28;20028;-48
2022/05/04 03:35:53;;;;;;;18.33;6.43;;;6.90;99.90;;;;;;5090279;28;20142;-46
2022/05/04 03:38:18;;;;;;;22.42;6.28;;;6.90;99.90;;;;;;5090295;28;20127;-46
2022/05/04 03:40:44;;;;;;;15.80;6.25;;;6.90;99.90;;;;;;5090321;28;20024;-47
2022/05/04 03:43:10;;;;;;;11.55;5.65;;;6.80;99.90;;;;;;5089544;28;20105;-49
2022/05/04 03:45:35;;;;;;;16.27;6.22;;;6.70;99.90;;;;;;5090186;28;20547;-47
2022/05/04 03:48:01;;;;;;;16.92;6.30;;;6.70;99.90;;;;;;5090077;28;20016;-46
2022/05/04 03:50:26;;;;;;;14.48;6.20;;;6.70;99.90;;;;;;5090004;28;20042;-46
2022/05/04 03:52:52;;;;;;;18.48;5.90;;;6.70;99.90;;;;;;5071843;28;20036;-47
2022/05/04 03:55:17;;;;;;;8.75;6.47;;;6.70;99.90;;;;;;5069652;28;20076;-46
2022/05/04 03:57:42;;;;;;;12.80;5.95;;;6.60;99.90;;;;;;5069215;28;20025;-47
2022/05/04 04:00:09;;;;;;;12.73;5.07;;;6.50;99.90;;;;;;5075872;28;20028;-48
2022/05/04 04:02:35;;;;;;;12.65;6.22;;;6.50;99.90;;;;;;5072515;28;20404;-48
2022/05/04 04:05:01;;;;;;;18.52;6.40;;;6.40;99.90;;;;;;5089581;28;20055;-46
2022/05/04 04:07:27;;;;;;;17.80;6.30;;;6.40;99.90;;;;;;5089827;28;20024;-46
2022/05/04 04:09:52;;;;;;;16.02;6.05;;;6.40;99.90;;;;;;5055146;28;995338;-47
2022/05/04 04:12:17;;;;;;;19.08;6.43;;;6.40;99.90;;;;;;5090110;28;20043;-48
2022/05/04 04:14:43;;;;;;;18.63;7.05;;;6.40;99.90;;;;;;5090507;28;20497;-46
2022/05/04 04:17:08;;;;;;;18.02;6.50;;;6.40;99.90;;;;;;5090588;28;20020;-48
2022/05/04 04:19:34;;;;;;;19.38;6.70;;;6.40;99.90;;;;;;5089372;28;20055;-47
2022/05/04 04:21:59;;;;;;;18.73;6.88;;;6.40;99.90;;;;;;5087430;28;20039;-47
2022/05/04 04:24:25;;;;;;;15.13;6.95;;;6.50;99.90;;;;;;5082556;28;20051;-46
2022/05/04 04:26:51;;;;;;;17.17;6.47;;;6.50;99.90;;;;;;5090595;28;20484;-47
2022/05/04 04:29:16;;;;;;;15.15;5.63;;;6.60;99.90;;;;;;5090330;28;20020;-47
2022/05/04 04:31:42;;;;;;;16.73;6.45;;;6.60;99.90;;;;;;5089664;28;20028;-47
2022/05/04 04:34:08;;;;;;;12.55;6.07;;;6.70;99.90;;;;;;5090245;28;20020;-50
2022/05/04 04:36:34;;;;;;;13.25;6.10;;;6.70;99.90;;;;;;5089878;28;20100;-47
2022/05/04 04:39:00;;;;;;;15.43;5.55;;;6.80;99.90;;;;;;5089049;28;20089;-47
2022/05/04 04:41:26;;;;;;;18.00;6.88;;;6.80;99.90;;;;;;5090090;28;20032;-47
2022/05/04 04:43:51;;;;;;;17.27;5.40;;;6.80;99.90;;;;;;5089428;28;20016;-47
2022/05/04 04:46:16;;;;;;;15.02;5.97;;;6.90;99.90;;;;;;5088640;28;20050;-47
2022/05/04 04:48:42;;;;;;;20.95;6.85;;;6.90;99.90;;;;;;5090005;28;20081;-47
2022/05/04 04:51:08;;;;;;;10.85;5.78;;;6.90;99.90;;;;;;5076536;28;20088;-48
2022/05/04 04:53:33;;;;;;;13.40;6.28;;;7.00;99.90;;;;;;5057927;28;20529;-47
2022/05/04 04:55:59;;;;;;;15.20;6.13;;;7.00;99.90;;;;;;5056969;28;20115;-47
2022/05/04 04:58:25;;;;;;;13.90;5.65;;;7.10;99.90;;;;;;5066768;28;20479;-48
2022/05/04 05:00:51;;;;;;;10.82;5.03;;;7.10;99.90;;;;;;5064338;28;20024;-47
2022/05/04 05:03:17;;;;;;;14.20;5.57;;;7.10;99.90;;;;;;5057051;28;20031;-47
2022/05/04 05:05:44;;;;;;;14.32;6.20;;;7.10;99.90;;;;;;5066804;28;20020;-48
2022/05/04 05:08:10;;;;;;;14.18;5.85;;;7.20;99.90;;;;;;5072293;28;20107;-47
2022/05/04 05:10:36;;;;;;;14.95;5.90;;;7.30;99.90;;;;;;5075666;28;20068;-47
2022/05/04 05:13:02;;;;;;;13.80;5.90;;;7.30;99.90;;;;;;5061682;28;20029;-47
2022/05/04 05:18:12;;;;;;;16.15;6.22;;;7.40;99.90;;;;;;5072195;28;20401;-48
2022/05/04 05:20:37;;;;;;;18.67;6.72;;;7.50;99.90;;;;;;5079489;28;20020;-46
2022/05/04 05:23:03;;;;;;;23.92;8.25;;;7.50;99.90;;;;;;5086894;28;20525;-48
2022/05/04 05:25:30;;;;;;;21.52;6.68;;;7.50;99.90;;;;;;5060481;28;20033;-49
2022/05/04 05:27:56;;;;;;;17.50;6.90;;;7.60;99.90;;;;;;5055835;28;20497;-48
2022/05/04 05:30:21;;;;;;;16.92;6.97;;;7.60;99.90;;;;;;5071432;28;20039;-38
2022/05/04 05:32:47;;;;;;;14.45;6.30;;;7.70;99.90;;;;;;5069385;28;20028;-38
2022/05/04 05:35:13;;;;;;;19.40;7.25;;;7.80;99.90;;;;;;5063237;28;20063;-38
2022/05/04 05:37:38;;;;;;;24.83;7.53;;;7.80;99.90;;;;;;5052086;28;20020;-38
2022/05/04 05:40:05;;;;;;;20.33;6.57;;;7.70;99.90;;;;;;5074942;28;20342;-46
2022/05/04 05:42:30;;;;;;;22.55;8.07;;;7.80;99.90;;;;;;5061317;28;20054;-46
2022/05/04 05:44:56;;;;;;;25.10;7.10;;;7.90;99.90;;;;;;5069941;28;20021;-46
2022/05/04 05:47:21;;;;;;;23.73;6.07;;;7.90;99.90;;;;;;5071989;28;20033;-46
2022/05/04 05:49:46;;;;;;;15.90;6.80;;;7.90;99.90;;;;;;5074642;28;20237;-46
2022/05/04 05:52:12;;;;;;;16.73;6.32;;;8.00;99.90;;;;;;5059290;28;20029;-48
2022/05/04 05:54:37;;;;;;;20.75;7.47;;;8.10;99.90;;;;;;5073527;28;20020;-46
2022/05/04 05:57:03;;;;;;;18.13;6.00;;;8.10;99.90;;;;;;5060421;28;20033;-46
2022/05/04 05:59:29;;;;;;;16.80;5.60;;;8.20;99.90;;;;;;5047517;28;20021;-46
2022/05/04 06:01:55;;;;;;;18.88;6.63;;;8.20;99.90;;;;;;5048572;28;20053;-47
2022/05/04 06:04:21;;;;;;;21.90;7.45;;;8.30;99.90;;;;;;5047626;28;20052;-47
2022/05/04 06:06:46;;;;;;;28.35;7.88;;;8.40;99.90;;;;;;5068312;28;20037;-47
2022/05/04 06:09:12;;;;;;;17.63;6.68;;;8.40;99.90;;;;;;5085900;28;20677;-46
2022/05/04 06:11:38;;;;;;;20.85;6.90;;;8.50;99.90;;;;;;5088547;28;20111;-46
2022/05/04 06:14:03;;;;;;;20.75;5.70;;;8.50;99.90;;;;;;5089257;28;20070;-46
2022/05/04 06:16:29;;;;;;;25.83;6.13;;;8.60;99.90;;;;;;5086920;28;20330;-47
2022/05/04 06:18:54;;;;;;;17.13;6.53;;;8.70;99.90;;;;;;5063260;28;20493;-48
2022/05/04 06:21:20;;;;;;;15.85;5.70;;;8.70;99.90;;;;;;5060245;28;20027;-47
2022/05/04 06:23:45;;;;;;;12.20;5.82;;;8.80;99.90;;;;;;5056155;28;20040;-46
2022/05/04 06:26:11;;;;;;;18.00;5.07;;;8.90;99.90;;;;;;5058921;28;20071;-49
2022/05/04 06:28:36;;;;;;;15.75;6.18;;;9.00;99.90;;;;;;5058563;28;20083;-46
2022/05/04 06:36:30;;;;;;;11.07;4.95;;;9.20;99.90;;;;;;5087968;28;20031;-46
2022/05/04 06:38:56;;;;;;;18.67;5.57;;;9.20;99.90;;;;;;5074203;28;20478;-47
2022/05/04 06:41:22;;;;;;;17.45;5.63;;;9.40;99.90;;;;;;5052851;28;20105;-46
2022/05/04 06:43:48;;;;;;;15.05;4.63;;;9.50;99.90;;;;;;5048112;28;20483;-46
2022/05/04 06:46:15;;;;;;;11.55;3.97;;;9.60;99.90;;;;;;5074066;28;20029;-46
2022/05/04 06:48:41;;;;;;;10.93;3.92;;;9.70;99.90;;;;;;5069163;28;20078;-47
2022/05/04 06:51:06;;;;;;;19.83;5.70;;;9.80;99.90;;;;;;5083774;28;20422;-49
2022/05/04 06:53:33;;;;;;;15.40;4.80;;;9.90;99.90;;;;;;5087301;28;20028;-46
2022/05/04 06:55:59;;;;;;;14.52;4.05;;;10.00;99.90;;;;;;5074670;28;20111;-47
2022/05/04 06:58:24;;;;;;;11.02;4.35;;;10.20;99.90;;;;;;5074686;28;20107;-49
2022/05/04 07:00:50;;;;;;;9.25;4.70;;;10.30;99.90;;;;;;5069021;28;20027;-47
2022/05/04 07:03:15;;;;;;;11.55;4.78;;;10.40;99.90;;;;;;5070298;28;20584;-38
2022/05/04 07:05:41;;;;;;;15.20;4.55;;;10.60;99.90;;;;;;5083805;28;20016;-39
2022/05/04 07:08:06;;;;;;;14.88;4.53;;;10.60;99.90;;;;;;5078620;28;20048;-36
2022/05/04 07:10:32;;;;;;;11.50;4.63;;;10.70;99.90;;;;;;5091964;28;20477;-36
2022/05/04 07:12:57;;;;;;;10.95;4.63;;;10.80;99.90;;;;;;5078759;28;20544;-36
2022/05/04 07:15:23;;;;;;;9.77;3.40;;;10.90;99.90;;;;;;5076127;28;20060;-36
2022/05/04 07:17:48;;;;;;;14.05;4.55;;;10.90;99.90;;;;;;5072691;28;20425;-36
2022/05/04 07:20:14;;;;;;;9.52;3.97;;;11.10;99.90;;;;;;5074502;28;20028;-36
2022/05/04 07:22:39;;;;;;;9.48;4.03;;;11.20;99.90;;;;;;5071079;28;20035;-44
2022/05/04 07:25:05;;;;;;;9.75;4.03;;;11.30;99.90;;;;;;5079849;28;20120;-36
2022/05/04 07:27:31;;;;;;;8.30;3.55;;;11.30;99.60;;;;;;5062750;28;20394;-36
2022/05/04 07:29:56;;;;;;;13.45;4.00;;;11.50;99.90;;;;;;5052262;28;20040;-36
2022/05/04 07:32:22;;;;;;;15.48;4.47;;;11.60;99.20;;;;;;5050215;28;20076;-37
2022/05/04 07:34:48;;;;;;;11.48;3.58;;;11.60;99.00;;;;;;5066026;28;20024;-37
2022/05/04 07:37:13;;;;;;;10.18;4.15;;;11.80;99.30;;;;;;5081691;28;20027;-37
2022/05/04 07:42:24;;;;;;;13.05;3.92;;;12.00;98.90;;;;;;5066236;28;20035;-38
2022/05/04 07:45:01;;;;;;;10.57;4.63;;;12.10;99.10;;;;;;5060887;28;20031;-37
2022/05/04 07:47:27;;;;;;;10.70;5.05;;;12.20;99.60;;;;;;5061486;28;20095;-37
2022/05/04 07:49:54;;;;;;;9.07;4.28;;;12.50;99.10;;;;;;5062848;28;20082;-38
2022/05/04 07:52:19;;;;;;;22.90;4.88;;;12.70;99.20;;;;;;5059005;28;20326;-38
2022/05/04 07:54:45;;;;;;;10.48;4.38;;;12.70;97.50;;;;;;5060949;28;20033;-38
2022/05/04 07:57:11;;;;;;;14.38;4.28;;;13.00;98.90;;;;;;5059720;28;20444;-38
2022/05/04 07:59:36;;;;;;;11.82;4.13;;;13.20;98.10;;;;;;5063507;28;20048;-38
2022/05/04 08:04:47;;;;;;;17.70;5.88;;;13.70;97.60;;;;;;5060298;28;20103;-37
2022/05/04 08:07:13;;;;;;;13.77;5.85;;;13.90;96.10;;;;;;5057344;28;20053;-38
2022/05/04 08:09:39;;;;;;;13.85;5.32;;;14.00;95.50;;;;;;5059546;28;20021;-38
2022/05/04 08:12:06;;;;;;;12.68;4.18;;;14.10;94.20;;;;;;5057764;28;20398;-39
2022/05/04 08:14:33;;;;;;;9.55;4.50;;;14.20;95.30;;;;;;5059005;28;20020;-37
2022/05/04 08:16:59;;;;;;;11.85;4.55;;;14.70;95.00;;;;;;5060937;28;20014;-38
2022/05/04 08:19:24;;;;;;;11.18;4.22;;;14.90;94.20;;;;;;5061056;28;20451;-37
2022/05/04 08:21:50;;;;;;;9.30;3.45;;;15.70;92.90;;;;;;5060279;28;20017;-38
2022/05/04 08:24:16;;;;;;;9.95;4.32;;;16.40;92.20;;;;;;5063393;28;20100;-39
2022/05/04 08:26:42;;;;;;;10.90;3.95;;;17.20;90.40;;;;;;5057424;28;20023;-39
2022/05/04 08:29:08;;;;;;;13.00;4.55;;;18.20;82.60;;;;;;5059347;28;20694;-39
2022/05/04 08:31:33;;;;;;;10.32;4.30;;;18.70;78.70;;;;;;5057623;28;20025;-37
2022/05/04 08:33:59;;;;;;;9.30;3.58;;;19.30;75.40;;;;;;5060392;28;20089;-38
2022/05/04 08:36:25;;;;;;;12.18;4.00;;;20.10;73.30;;;;;;5065458;28;20282;-37
2022/05/04 08:38:50;;;;;;;14.20;5.22;;;20.80;67.80;;;;;;5062883;28;20060;-37
2022/05/04 08:41:16;;;;;;;11.40;4.30;;;20.70;65.00;;;;;;5055067;28;20032;-37
2022/05/04 08:43:43;;;;;;;9.10;3.63;;;22.00;64.40;;;;;;5055372;28;20031;-38
2022/05/04 08:46:13;;;;;;;9.40;3.60;;;22.90;62.00;;;;;;5056784;28;20046;-38
2022/05/04 08:48:40;;;;;;;7.72;3.30;;;23.60;59.50;;;;;;5059346;28;20096;-38
2022/05/04 08:51:07;;;;;;;9.35;3.65;;;24.00;57.60;;;;;;5060598;28;20066;-37
2022/05/04 08:53:34;;;;;;;9.10;3.55;;;23.80;56.80;;;;;;5056037;28;20043;-37
2022/05/04 08:56:00;;;;;;;7.10;2.60;;;24.20;55.70;;;;;;5056824;28;20055;-38
2022/05/04 08:58:26;;;;;;;7.15;3.28;;;24.70;53.80;;;;;;5058192;28;20024;-38
2022/05/04 09:00:51;;;;;;;5.47;2.80;;;24.70;53.20;;;;;;5060151;28;20132;-38
2022/05/04 09:03:18;;;;;;;8.32;3.22;;;25.00;52.40;;;;;;5057080;28;20037;-38
2022/05/04 09:05:46;;;;;;;8.25;3.50;;;25.90;51.70;;;;;;5060124;28;20047;-38
2022/05/04 09:08:12;;;;;;;8.25;3.63;;;26.90;49.30;;;;;;5059529;28;20184;-38
2022/05/04 09:10:40;;;;;;;8.32;3.70;;;27.30;48.70;;;;;;5062093;28;20035;-38
2022/05/04 09:13:06;;;;;;;7.85;3.80;;;27.10;49.70;;;;;;5058459;28;20428;-38
2022/05/04 09:15:33;;;;;;;9.00;3.63;;;27.10;46.90;;;;;;5058335;28;20013;-38
2022/05/04 09:18:00;;;;;;;6.30;3.13;;;27.10;46.50;;;;;;5057994;28;20094;-39
2022/05/04 09:20:55;;;;;;;10.05;3.80;;;27.30;46.30;;;;;;5063059;28;20029;-39
2022/05/04 09:23:29;;;;;;;9.55;3.38;;;27.90;45.10;;;;;;5059335;28;20528;-39
2022/05/04 09:25:56;;;;;;;7.10;3.28;;;28.30;45.50;;;;;;5055894;28;20033;-39
2022/05/04 09:28:24;;;;;;;7.97;2.70;;;27.60;46.40;;;;;;5059453;28;20029;-39
2022/05/04 09:30:52;;;;;;;9.40;3.85;;;28.20;45.50;;;;;;5061022;28;20028;-39
2022/05/04 09:33:28;;;;;;;11.82;3.95;;;27.40;45.00;;;;;;5061934;28;20013;-39
2022/05/04 09:35:55;;;;;;;10.80;3.30;;;28.20;45.20;;;;;;5058325;28;20052;-39
2022/05/04 09:46:49;;;;;;;9.00;3.25;;;28.80;43.10;;;;;;5058748;28;20154;-39
2022/05/04 09:49:17;;;;;;;8.13;3.50;;;28.30;43.70;;;;;;5062339;28;20377;-39
2022/05/04 09:51:51;;;;;;;10.30;3.30;;;27.40;45.30;;;;;;5056277;28;20470;-39
2022/05/04 09:54:19;;;;;;;7.32;3.85;;;27.90;46.10;;;;;;5060228;28;20388;-40
2022/05/04 09:56:47;;;;;;;6.43;3.55;;;29.10;44.50;;;;;;5061305;28;20061;-39
2022/05/04 09:59:18;;;;;;;6.88;3.00;;;29.70;42.60;;;;;;5057152;28;20559;-39
2022/05/04 10:01:45;;;;;;;8.43;3.55;;;30.10;42.50;;;;;;5037802;28;20024;-38
2022/05/04 10:04:12;;;;;;;7.72;3.30;;;30.20;41.20;;;;;;5059042;28;20017;-38
2022/05/04 10:06:39;;;;;;;7.53;3.42;;;30.60;41.40;;;;;;5056054;28;20371;-38
2022/05/04 10:09:06;;;;;;;13.35;3.58;;;31.10;41.90;;;;;;5058320;28;20044;-39
2022/05/04 10:11:34;;;;;;;6.40;3.20;;;31.20;40.90;;;;;;5060282;28;20027;-38
2022/05/04 10:14:08;;;;;;;7.18;3.80;;;31.10;40.40;;;;;;5056495;28;20016;-38
2022/05/04 10:16:53;;;;;;;8.85;3.63;;;30.70;39.40;;;;;;5056058;28;20036;-40
2022/05/04 10:19:29;;;;;;;10.23;3.67;;;29.30;41.90;;;;;;5068220;28;20115;-39
2022/05/04 10:21:58;;;;;;;10.38;4.15;;;28.80;43.90;;;;;;5059878;28;20075;-39
2022/05/04 10:24:27;;;;;;;6.75;3.40;;;29.50;43.30;;;;;;5057563;28;20075;-39
2022/05/04 10:27:01;;;;;;;6.43;4.00;;;28.00;43.90;;;;;;5057760;28;20021;-39
2022/05/04 10:32:27;;;;;;;9.48;3.47;;;28.30;43.00;;;;;;5060242;28;20405;-39
2022/05/04 10:35:13;;;;;;;8.23;3.55;;;27.30;43.70;;;;;;5057151;28;20024;-39
2022/05/04 10:37:58;;;;;;;9.05;3.45;;;28.00;43.90;;;;;;5061377;28;20044;-39
2022/05/04 10:40:32;;;;;;;7.15;3.25;;;28.30;45.10;;;;;;5061035;28;20025;-39
2022/05/04 10:43:03;;;;;;;10.75;4.35;;;29.00;43.80;;;;;;5064625;28;20013;-39
2022/05/04 10:45:30;;;;;;;7.10;3.50;;;29.60;42.10;;;;;;5061448;28;20012;-39
2022/05/04 10:48:18;;;;;;;8.63;3.45;;;29.90;45.30;;;;;;5062808;28;20623;-39
2022/05/04 10:50:56;;;;;;;8.18;3.53;;;31.90;40.30;;;;;;5064239;28;20035;-39
2022/05/04 10:53:35;;;;;;;7.22;2.92;;;32.50;40.10;;;;;;5063871;28;20052;-39
2022/05/04 10:56:01;;;;;;;9.95;3.78;;;31.70;40.10;;;;;;5061895;28;20055;-39
2022/05/04 10:58:38;;;;;;;8.27;3.40;;;30.90;41.70;;;;;;5061178;28;20020;-39
2022/05/04 11:01:04;;;;;;;9.63;3.55;;;30.60;41.90;;;;;;5061583;28;20033;-39
2022/05/04 11:03:34;;;;;;;6.88;3.70;;;30.50;42.20;;;;;;5063646;28;20017;-39
2022/05/04 11:06:06;;;;;;;6.57;3.13;;;30.10;42.30;;;;;;5060940;28;20092;-39
2022/05/04 11:08:36;;;;;;;7.20;3.88;;;28.80;43.30;;;;;;5058697;28;20033;-39
2022/05/04 11:11:03;;;;;;;8.00;4.28;;;28.10;42.80;;;;;;5058893;28;20039;-38
2022/05/04 11:13:31;;;;;;;10.52;4.35;;;26.40;44.80;;;;;;5061105;28;20511;-37
2022/05/04 11:16:00;;;;;;;13.63;4.53;;;25.60;46.20;;;;;;5061393;28;20032;-37
2022/05/04 11:18:27;;;;;;;12.93;4.43;;;25.20;46.40;;;;;;5063714;28;20044;-37
2022/05/04 11:20:54;;;;;;;42.85;28.23;;;24.10;49.50;;;;;;5062670;28;20024;-37
2022/05/04 11:23:24;;;;;;;18.45;9.68;;;24.00;49.80;;;;;;5058664;28;20533;-37
2022/05/04 11:25:50;;;;;;;10.40;4.95;;;24.20;50.10;;;;;;5060709;28;20064;-37
2022/05/04 11:28:22;;;;;;;10.55;4.68;;;24.40;51.20;;;;;;5064235;28;20063;-37
2022/05/04 11:30:47;;;;;;;9.63;4.35;;;24.50;50.20;;;;;;5061356;28;20410;-37
2022/05/04 11:33:14;;;;;;;11.15;4.00;;;24.50;52.30;;;;;;5059517;28;20027;-37
2022/05/04 11:35:42;;;;;;;9.98;4.32;;;24.20;53.70;;;;;;5063277;28;20390;-37
2022/05/04 11:38:15;;;;;;;8.65;3.25;;;24.40;51.80;;;;;;5064299;28;20104;-37
2022/05/04 11:40:45;;;;;;;13.77;5.43;;;25.50;50.60;;;;;;5061648;28;20385;-37
2022/05/04 11:43:21;;;;;;;7.05;3.55;;;26.20;47.30;;;;;;5058762;28;20031;-38
2022/05/04 11:45:48;;;;;;;11.68;4.18;;;27.60;46.10;;;;;;5059860;28;20025;-38
2022/05/04 11:48:16;;;;;;;8.05;3.95;;;28.40;44.30;;;;;;5061643;28;20452;-38
2022/05/04 11:50:43;;;;;;;8.52;3.83;;;28.30;44.70;;;;;;5061062;28;20596;-38
2022/05/04 11:53:08;;;;;;;11.73;5.40;;;27.40;46.20;;;;;;5060138;28;20061;-38
2022/05/04 11:55:34;;;;;;;7.05;3.42;;;25.70;45.40;;;;;;5061677;28;20220;-37
2022/05/04 11:58:00;;;;;;;9.50;4.72;;;24.60;48.60;;;;;;5061423;28;20021;-37
2022/05/04 12:00:26;;;;;;;6.82;3.50;;;24.20;49.90;;;;;;5065949;28;20140;-37
2022/05/04 12:02:52;;;;;;;9.00;4.25;;;24.40;49.90;;;;;;5060937;28;20025;-39
2022/05/04 12:05:18;;;;;;;12.60;4.63;;;24.60;49.30;;;;;;5056324;28;20021;-38
2022/05/04 12:07:44;;;;;;;10.00;4.60;;;24.00;51.50;;;;;;5056682;28;20438;-38
2022/05/04 12:10:11;;;;;;;8.07;4.18;;;24.30;51.00;;;;;;5053148;28;20037;-38
2022/05/04 12:12:37;;;;;;;10.15;5.28;;;24.20;52.00;;;;;;5053447;28;20033;-38
2022/05/04 12:15:05;;;;;;;7.65;4.00;;;23.90;49.70;;;;;;5055872;28;20036;-38
2022/05/04 12:17:36;;;;;;;6.45;3.70;;;23.40;52.30;;;;;;5057910;28;20073;-38
2022/05/04 12:20:02;;;;;;;;;;;23.60;53.20;;;;;;5057940;28;20021;-38
2022/05/04 12:22:27;;;;;;;8.75;4.72;;;23.90;54.10;;;;;;5053086;28;19936;-38
2022/05/04 12:24:53;;;;;;;10.40;4.45;;;23.70;53.20;;;;;;5053564;28;20024;-38
2022/05/04 12:27:18;;;;;;;7.32;4.10;;;23.30;53.20;;;;;;5058260;28;20024;-38
2022/05/04 12:35:12;;;;;;;9.77;4.18;;;22.90;53.80;;;;;;5059176;28;20040;-38
2022/05/04 12:37:38;;;;;;;8.30;4.63;;;23.00;54.30;;;;;;5066430;28;20020;-38
2022/05/04 12:40:04;;;;;;;8.57;4.60;;;23.30;53.90;;;;;;5059115;28;20017;-38
2022/05/04 12:42:30;;;;;;;12.80;5.28;;;22.60;53.80;;;;;;5054842;28;20077;-38
2022/05/04 12:44:59;;;;;;;8.63;4.70;;;22.80;54.10;;;;;;5053874;28;20029;-38
2022/05/04 12:47:25;;;;;;;11.52;5.28;;;23.00;52.90;;;;;;5056437;28;20498;-38
2022/05/04 12:49:50;;;;;;;9.50;5.00;;;22.90;53.50;;;;;;5053891;28;20115;-38
2022/05/04 12:52:17;;;;;;;11.25;4.30;;;23.30;54.60;;;;;;5060643;28;20021;-38
2022/05/04 12:54:43;;;;;;;6.75;4.20;;;23.20;55.80;;;;;;5058134;28;20020;-38
2022/05/04 12:57:08;;;;;;;13.35;4.88;;;22.80;54.20;;;;;;5059041;28;20078;-38
2022/05/04 12:59:34;;;;;;;7.10;4.32;;;22.30;54.00;;;;;;5063773;28;20055;-38
2022/05/04 13:02:00;;;;;;;11.10;4.50;;;21.90;56.40;;;;;;5060208;28;20122;-38
2022/05/04 13:04:26;;;;;;;11.65;4.57;;;21.60;56.80;;;;;;5059114;28;20394;-38
2022/05/04 13:06:51;;;;;;;11.18;5.25;;;21.50;56.10;;;;;;5056249;28;20035;-37
2022/05/04 13:09:17;;;;;;;12.35;5.38;;;21.20;56.50;;;;;;5054481;28;20039;-37
2022/05/04 13:11:42;;;;;;;10.90;4.68;;;21.00;57.30;;;;;;5060993;28;20025;-38
2022/05/04 13:14:08;;;;;;;11.13;4.35;;;20.80;57.60;;;;;;5061600;28;20025;-37
2022/05/04 13:16:34;;;;;;;11.50;4.68;;;20.60;58.70;;;;;;5062777;28;20021;-37
2022/05/04 13:19:00;;;;;;;11.02;4.85;;;20.80;58.20;;;;;;5063080;28;20029;-38
2022/05/04 13:21:26;;;;;;;13.55;5.57;;;20.90;58.20;;;;;;5065695;28;20097;-36